Daikoku — JD3247 — position and weather

sailwx.info

Track history (hours):
 
Tides and Currents Weather Stations Pressure Air Temp Water Temp Dewpoint Dewpoint Depression Visibility Wind Speed Wind Dir Waves Ship Positions

Daikoku

Last reported at 2014-Sep-22 04:33 UTC. Time now 2014-Sep-23 06:24 UTC.
Position N 32°07' E 131°44'.

Length 95 m; draft 4.4 m.

Type: Cargo ship. MMSI: 431003009.

Date/timePositionNaut miles runAvg speedWind from/ knotsBaromVisibWave heightAir tempDewpointWater temp
2014-Sep-22 04:33N 32°07' E 131°44'122 4.3
2014-Sep-21 00:12N 33°58' E 132°42'11811.0
2014-Sep-20 13:30N 34°37' E 134°57'1010.8
2014-Sep-20 12:33N 34°36' E 135°09'5 5.1
2014-Sep-20 11:33N 34°40' E 135°14'0 0.0
2014-Sep-20 10:30N 34°40' E 135°14'3 3.0
2014-Sep-20 09:33N 34°38' E 135°17'1212.1
2014-Sep-20 08:33N 34°27' E 135°10'1312.4
2014-Sep-20 07:33N 34°18' E 134°59'1212.5
2014-Sep-20 06:33N 34°06' E 135°00'24311.4
2014-Sep-19 09:12N 35°09' E 139°44'912.7
2014-Sep-19 08:32N 35°18' E 139°44'1111.8
2014-Sep-19 07:33N 35°29' E 139°45'1 0.9
2014-Sep-19 06:33N 35°29' E 139°46'7 7.0
2014-Sep-19 05:33N 35°36' E 139°46'0 0.0
2014-Sep-19 04:32N 35°36' E 139°46'4 4.5
2014-Sep-19 03:33N 35°34' E 139°50'3 2.4
2014-Sep-19 02:30N 35°34' E 139°53'0 0.1
2014-Sep-19 01:33N 35°34' E 139°53'5 5.5
2014-Sep-19 00:33N 35°29' E 139°51'1212.1
2014-Sep-18 23:33N 35°17' E 139°45'1212.4
2014-Sep-18 22:33N 35°05' E 139°45'6 0.1
2014-Sep-17 03:32N 35°11' E 139°45'1212.2
2014-Sep-17 02:33N 35°22' E 139°42'4 3.9
2014-Sep-17 01:31N 35°26' E 139°41'0 0.1
2014-Sep-17 00:33N 35°26' E 139°41'1 1.2
2014-Sep-16 23:33N 35°27' E 139°41'5 4.4
2014-Sep-16 22:31N 35°23' E 139°44'0 0.0
2014-Sep-16 21:31N 35°23' E 139°44'0 0.0
2014-Sep-16 20:31N 35°23' E 139°44'0 0.0
2014-Sep-16 19:31N 35°23' E 139°44'0 0.1
2014-Sep-16 18:31N 35°23' E 139°44'0 0.0
2014-Sep-16 17:31N 35°23' E 139°44'0 0.0
2014-Sep-16 16:31N 35°23' E 139°44'0 0.1
2014-Sep-16 15:31N 35°23' E 139°44'0 0.0
2014-Sep-16 14:31N 35°24' E 139°44'0 0.0
2014-Sep-16 13:31N 35°24' E 139°44'0 0.0
2014-Sep-16 12:31N 35°24' E 139°44'0 0.0
2014-Sep-16 11:31N 35°24' E 139°44'0 0.0
2014-Sep-16 10:31N 35°24' E 139°44'0 0.0
2014-Sep-16 09:31N 35°24' E 139°44'0 0.0
2014-Sep-16 08:31N 35°24' E 139°44'2 2.2
2014-Sep-16 07:33N 35°24' E 139°42'1 0.9
2014-Sep-16 06:33N 35°24' E 139°41'1 0.8
2014-Sep-16 05:33N 35°23' E 139°41'3 3.0
2014-Sep-16 04:32N 35°26' E 139°41'0 0.3
2014-Sep-16 03:34N 35°27' E 139°41'4 3.6
2014-Sep-16 02:33N 35°24' E 139°45'0 0.1
2014-Sep-16 01:33N 35°24' E 139°45'1 0.8
2014-Sep-16 00:33N 35°23' E 139°44'1211.7
2014-Sep-15 23:33N 35°12' E 139°47'1312.6
2014-Sep-15 22:33N 35°01' E 139°39'9 0.3
2014-Sep-14 14:27N 34°60' E 139°29'1112.7
2014-Sep-14 13:33N 35°06' E 139°40'1111.4
2014-Sep-14 12:33N 35°17' E 139°45'8 8.2
2014-Sep-14 11:33N 35°24' E 139°41'0 0.0
2014-Sep-14 10:33N 35°24' E 139°41'0 0.0
2014-Sep-14 09:33N 35°24' E 139°41'9 9.1
2014-Sep-14 08:33N 35°16' E 139°46'1211.7
2014-Sep-14 07:33N 35°05' E 139°44'234 9.0
2014-Sep-13 05:33N 34°24' E 135°04'1312.9
2014-Sep-13 04:33N 34°34' E 135°15'6 5.6
2014-Sep-13 03:29N 34°40' E 135°14'3 2.9
2014-Sep-13 02:33N 34°41' E 135°17'1 0.7
2014-Sep-13 01:33N 34°41' E 135°17'0 0.1
2014-Sep-13 00:30N 34°41' E 135°17'0 0.0
2014-Sep-12 23:24N 34°41' E 135°17'4 4.2
2014-Sep-12 22:32N 34°38' E 135°19'0 0.0
2014-Sep-12 21:20N 34°38' E 135°19'0 0.0
2014-Sep-12 20:25N 34°38' E 135°19'0 0.1
2014-Sep-12 19:26N 34°38' E 135°19'0 0.0
2014-Sep-12 18:20N 34°38' E 135°19'0 0.0
2014-Sep-12 17:32N 34°38' E 135°19'0 0.0
2014-Sep-12 16:32N 34°38' E 135°19'0 0.1
2014-Sep-12 15:33N 34°38' E 135°19'1110.9
2014-Sep-12 14:33N 34°30' E 135°11'1211.7
2014-Sep-12 13:33N 34°21' E 135°02'1212.2
2014-Sep-12 12:33N 34°09' E 134°60'  
Track history (hours):
 
Tides and Currents Weather Stations Pressure Air Temp Water Temp Dewpoint Dewpoint Depression Visibility Wind Speed Wind Dir Waves Ship Positions

Daikoku

Last reported at 2014-Sep-22 04:33 UTC. Time now 2014-Sep-23 06:24 UTC.
Position N 32°07' E 131°44'.

Length 95 m; draft 4.4 m.

Type: Cargo ship. MMSI: 431003009.

Date/timePositionNaut miles runAvg speedWind from/ knotsBaromVisibWave heightAir tempDewpointWater temp
2014-Sep-22 04:33N 32°07' E 131°44'122 4.3
2014-Sep-21 00:12N 33°58' E 132°42'11811.0
2014-Sep-20 13:30N 34°37' E 134°57'1010.8
2014-Sep-20 12:33N 34°36' E 135°09'5 5.1
2014-Sep-20 11:33N 34°40' E 135°14'0 0.0
2014-Sep-20 10:30N 34°40' E 135°14'3 3.0
2014-Sep-20 09:33N 34°38' E 135°17'1212.1
2014-Sep-20 08:33N 34°27' E 135°10'1312.4
2014-Sep-20 07:33N 34°18' E 134°59'1212.5
2014-Sep-20 06:33N 34°06' E 135°00'24311.4
2014-Sep-19 09:12N 35°09' E 139°44'912.7
2014-Sep-19 08:32N 35°18' E 139°44'1111.8
2014-Sep-19 07:33N 35°29' E 139°45'1 0.9
2014-Sep-19 06:33N 35°29' E 139°46'7 7.0
2014-Sep-19 05:33N 35°36' E 139°46'0 0.0
2014-Sep-19 04:32N 35°36' E 139°46'4 4.5
2014-Sep-19 03:33N 35°34' E 139°50'3 2.4
2014-Sep-19 02:30N 35°34' E 139°53'0 0.1
2014-Sep-19 01:33N 35°34' E 139°53'5 5.5
2014-Sep-19 00:33N 35°29' E 139°51'1212.1
2014-Sep-18 23:33N 35°17' E 139°45'1212.4
2014-Sep-18 22:33N 35°05' E 139°45'6 0.1
2014-Sep-17 03:32N 35°11' E 139°45'1212.2
2014-Sep-17 02:33N 35°22' E 139°42'4 3.9
2014-Sep-17 01:31N 35°26' E 139°41'0 0.1
2014-Sep-17 00:33N 35°26' E 139°41'1 1.2
2014-Sep-16 23:33N 35°27' E 139°41'5 4.4
2014-Sep-16 22:31N 35°23' E 139°44'0 0.0
2014-Sep-16 21:31N 35°23' E 139°44'0 0.0
2014-Sep-16 20:31N 35°23' E 139°44'0 0.0
2014-Sep-16 19:31N 35°23' E 139°44'0 0.1
2014-Sep-16 18:31N 35°23' E 139°44'0 0.0
2014-Sep-16 17:31N 35°23' E 139°44'0 0.0
2014-Sep-16 16:31N 35°23' E 139°44'0 0.1
2014-Sep-16 15:31N 35°23' E 139°44'0 0.0
2014-Sep-16 14:31N 35°24' E 139°44'0 0.0
2014-Sep-16 13:31N 35°24' E 139°44'0 0.0
2014-Sep-16 12:31N 35°24' E 139°44'0 0.0
2014-Sep-16 11:31N 35°24' E 139°44'0 0.0
2014-Sep-16 10:31N 35°24' E 139°44'0 0.0
2014-Sep-16 09:31N 35°24' E 139°44'0 0.0
2014-Sep-16 08:31N 35°24' E 139°44'2 2.2
2014-Sep-16 07:33N 35°24' E 139°42'1 0.9
2014-Sep-16 06:33N 35°24' E 139°41'1 0.8
2014-Sep-16 05:33N 35°23' E 139°41'3 3.0
2014-Sep-16 04:32N 35°26' E 139°41'0 0.3
2014-Sep-16 03:34N 35°27' E 139°41'4 3.6
2014-Sep-16 02:33N 35°24' E 139°45'0 0.1
2014-Sep-16 01:33N 35°24' E 139°45'1 0.8
2014-Sep-16 00:33N 35°23' E 139°44'1211.7
2014-Sep-15 23:33N 35°12' E 139°47'1312.6
2014-Sep-15 22:33N 35°01' E 139°39'9 0.3
2014-Sep-14 14:27N 34°60' E 139°29'1112.7
2014-Sep-14 13:33N 35°06' E 139°40'1111.4
2014-Sep-14 12:33N 35°17' E 139°45'8 8.2
2014-Sep-14 11:33N 35°24' E 139°41'0 0.0
2014-Sep-14 10:33N 35°24' E 139°41'0 0.0
2014-Sep-14 09:33N 35°24' E 139°41'9 9.1
2014-Sep-14 08:33N 35°16' E 139°46'1211.7
2014-Sep-14 07:33N 35°05' E 139°44'234 9.0
2014-Sep-13 05:33N 34°24' E 135°04'1312.9
2014-Sep-13 04:33N 34°34' E 135°15'6 5.6
2014-Sep-13 03:29N 34°40' E 135°14'3 2.9
2014-Sep-13 02:33N 34°41' E 135°17'1 0.7
2014-Sep-13 01:33N 34°41' E 135°17'0 0.1
2014-Sep-13 00:30N 34°41' E 135°17'0 0.0
2014-Sep-12 23:24N 34°41' E 135°17'4 4.2
2014-Sep-12 22:32N 34°38' E 135°19'0 0.0
2014-Sep-12 21:20N 34°38' E 135°19'0 0.0
2014-Sep-12 20:25N 34°38' E 135°19'0 0.1
2014-Sep-12 19:26N 34°38' E 135°19'0 0.0
2014-Sep-12 18:20N 34°38' E 135°19'0 0.0
2014-Sep-12 17:32N 34°38' E 135°19'0 0.0
2014-Sep-12 16:32N 34°38' E 135°19'0 0.1
2014-Sep-12 15:33N 34°38' E 135°19'1110.9
2014-Sep-12 14:33N 34°30' E 135°11'1211.7
2014-Sep-12 13:33N 34°21' E 135°02'1212.2
2014-Sep-12 12:33N 34°09' E 134°60'  

Dump ship's entire track history